Time,TemperatureF,DewpointF,PressureIn,WindDirection,WindDirectionDegrees,WindSpeedMPH,WindSpeedGustMPH,Humidity,HourlyPrecipIn,Conditions,Clouds,dailyrainin,SoftwareType,DateUTC
2013-01-12 00:04:00,60.4,46.7,29.06,WNW,298,10.2,15.4,62,0.00,,,0.00,WSDL version 426,2013-01-12 06:04:00,
2013-01-12 00:09:00,60.6,47.3,29.06,WSW,248,3.1,15.4,61,0.00,,,0.00,WSDL version 426,2013-01-12 06:09:00,
2013-01-12 00:14:00,60.8,47.3,29.09,WNW,290,4.4,8.5,61,0.00,,,0.00,WSDL version 426,2013-01-12 06:14:00,
2013-01-12 00:19:00,60.8,47.2,29.09,WNW,301,4.1,8.5,61,0.00,,,0.00,WSDL version 426,2013-01-12 06:19:00,
2013-01-12 00:24:00,60.8,46.8,29.09,SSE,158,1.6,6.0,60,0.00,,,0.00,WSDL version 426,2013-01-12 06:24:00,
2013-01-12 00:29:00,60.7,47.1,29.09,West,268,4.9,7.2,61,0.00,,,0.00,WSDL version 426,2013-01-12 06:29:00,
2013-01-12 00:34:00,60.8,47.3,29.09,WSW,256,3.7,7.4,61,0.00,,,0.00,WSDL version 426,2013-01-12 06:34:00,
2013-01-12 00:39:00,61.0,47.4,29.09,WSW,248,5.2,7.4,60,0.00,,,0.00,WSDL version 426,2013-01-12 06:39:00,
2013-01-12 00:44:00,61.1,47.2,29.09,SW,235,3.6,6.5,60,0.00,,,0.00,WSDL version 426,2013-01-12 06:44:00,
2013-01-12 00:49:00,61.2,47.2,29.09,SW,228,3.6,6.0,60,0.00,,,0.00,WSDL version 426,2013-01-12 06:49:00,
2013-01-12 00:54:00,61.2,47.2,29.09,WSW,243,2.9,5.8,60,0.00,,,0.00,WSDL version 426,2013-01-12 06:54:00,
2013-01-12 00:59:00,61.2,47.2,29.09,WSW,250,2.6,4.5,60,0.00,,,0.00,WSDL version 426,2013-01-12 06:59:00,
2013-01-12 01:04:00,61.0,46.8,29.09,SSW,203,0.9,3.8,59,0.00,,,0.00,WSDL version 426,2013-01-12 07:04:00,
2013-01-12 01:09:00,60.8,46.4,29.09,SSW,208,0.0,3.4,59,0.00,,,0.00,WSDL version 426,2013-01-12 07:09:00,
2013-01-12 01:14:00,60.7,46.5,29.09,West,273,2.2,3.1,60,0.00,,,0.00,WSDL version 426,2013-01-12 07:14:00,
2013-01-12 01:19:00,60.6,46.7,29.09,WNW,293,0.8,3.4,60,0.00,,,0.00,WSDL version 426,2013-01-12 07:19:00,
2013-01-12 01:24:00,60.5,46.7,29.09,WNW,295,3.0,5.4,61,0.00,,,0.00,WSDL version 426,2013-01-12 07:24:00,
2013-01-12 01:29:00,60.4,43.2,29.09,NW,318,4.0,9.8,48,0.00,,,0.00,WSDL version 426,2013-01-12 07:29:00,
2013-01-12 01:34:00,60.4,36.5,29.09,NW,323,6.4,9.8,39,0.00,,,0.00,WSDL version 426,2013-01-12 07:34:00,
2013-01-12 01:39:00,60.4,35.4,29.09,NW,315,4.0,7.8,38,0.00,,,0.00,WSDL version 426,2013-01-12 07:39:00,
2013-01-12 01:44:00,60.2,33.9,29.09,WNW,293,3.5,4.9,36,0.00,,,0.00,WSDL version 426,2013-01-12 07:44:00,
2013-01-12 01:49:00,60.1,33.1,29.09,NW,310,3.4,5.4,36,0.00,,,0.00,WSDL version 426,2013-01-12 07:49:00,
2013-01-12 01:54:00,59.9,32.8,29.09,West,262,3.2,5.4,35,0.00,,,0.00,WSDL version 426,2013-01-12 07:54:00,
2013-01-12 01:59:00,59.7,32.0,29.12,WNW,283,3.2,6.0,35,0.00,,,0.00,WSDL version 426,2013-01-12 07:59:00,
2013-01-12 02:04:00,59.5,31.9,29.12,WNW,295,3.0,6.0,35,0.00,,,0.00,WSDL version 426,2013-01-12 08:04:00,
2013-01-12 02:09:00,59.4,31.3,29.12,WNW,283,2.6,5.4,34,0.00,,,0.00,WSDL version 426,2013-01-12 08:09:00,
2013-01-12 02:14:00,59.3,30.9,29.12,West,278,2.2,8.7,34,0.00,,,0.00,WSDL version 426,2013-01-12 08:14:00,
2013-01-12 02:19:00,59.2,28.7,29.12,NW,307,6.5,8.7,29,0.00,,,0.00,WSDL version 426,2013-01-12 08:19:00,
2013-01-12 02:24:00,59.1,26.9,29.12,WNW,303,5.2,8.7,28,0.00,,,0.00,WSDL version 426,2013-01-12 08:24:00,
2013-01-12 02:29:00,58.9,26.3,29.12,NW,318,4.6,6.5,28,0.00,,,0.00,WSDL version 426,2013-01-12 08:29:00,
2013-01-12 02:34:00,58.7,26.6,29.12,WNW,290,4.1,6.3,29,0.00,,,0.00,WSDL version 426,2013-01-12 08:34:00,
2013-01-12 02:39:00,58.5,25.5,29.12,WNW,283,4.0,6.0,28,0.00,,,0.00,WSDL version 426,2013-01-12 08:39:00,
2013-01-12 02:44:00,58.4,25.3,29.12,NW,315,4.1,6.0,27,0.00,,,0.00,WSDL version 426,2013-01-12 08:44:00,
2013-01-12 02:49:00,58.2,24.4,29.12,NW,320,4.8,6.5,27,0.00,,,0.00,WSDL version 426,2013-01-12 08:49:00,
2013-01-12 02:54:00,58.0,25.1,29.12,NNW,330,2.9,6.5,28,0.00,,,0.00,WSDL version 426,2013-01-12 08:54:00,
2013-01-12 02:59:00,57.8,24.5,29.12,NNW,343,6.4,8.1,27,0.00,,,0.00,WSDL version 426,2013-01-12 08:59:00,
2013-01-12 03:04:00,57.7,23.6,29.12,NNW,328,6.6,9.6,26,0.00,,,0.00,WSDL version 426,2013-01-12 09:04:00,
2013-01-12 03:09:00,57.7,23.3,29.12,NW,309,8.6,10.7,26,0.00,,,0.00,WSDL version 426,2013-01-12 09:09:00,
2013-01-12 03:14:00,57.7,23.1,29.12,NW,315,8.7,12.1,26,0.00,,,0.00,WSDL version 426,2013-01-12 09:14:00,
2013-01-12 03:20:00,57.6,22.9,29.12,WNW,300,8.3,12.1,26,0.00,,,0.00,WSDL version 426,2013-01-12 09:20:00,
2013-01-12 03:25:00,57.4,22.8,29.12,NW,305,7.0,12.5,26,0.00,,,0.00,WSDL version 426,2013-01-12 09:25:00,
2013-01-12 03:30:00,57.1,22.6,29.12,NNW,329,6.9,12.5,26,0.00,,,0.00,WSDL version 426,2013-01-12 09:30:00,
2013-01-12 03:35:00,56.9,22.4,29.12,NNW,330,8.5,13.0,26,0.00,,,0.00,WSDL version 426,2013-01-12 09:35:00,
2013-01-12 03:40:00,56.7,22.2,29.12,NW,326,7.5,13.0,26,0.00,,,0.00,WSDL version 426,2013-01-12 09:40:00,
2013-01-12 03:45:00,56.4,21.9,29.12,NW,323,6.8,11.0,26,0.00,,,0.00,WSDL version 426,2013-01-12 09:45:00,
2013-01-12 03:50:00,56.2,21.7,29.12,NW,323,8.8,11.0,26,0.00,,,0.00,WSDL version 426,2013-01-12 09:50:00,
2013-01-12 03:55:00,56.0,22.2,29.12,NNW,338,7.0,11.0,27,0.00,,,0.00,WSDL version 426,2013-01-12 09:55:00,
2013-01-12 04:00:00,55.6,22.2,29.12,NW,323,6.8,10.7,27,0.00,,,0.00,WSDL version 426,2013-01-12 10:00:00,
2013-01-12 04:05:00,55.3,22.3,29.12,NNW,335,4.8,10.7,28,0.00,,,0.00,WSDL version 426,2013-01-12 10:05:00,
2013-01-12 04:10:00,55.1,22.6,29.12,NNW,338,4.5,8.1,28,0.00,,,0.00,WSDL version 426,2013-01-12 10:10:00,
2013-01-12 04:15:00,54.8,22.3,29.12,NNW,340,5.1,8.5,28,0.00,,,0.00,WSDL version 426,2013-01-12 10:15:00,
2013-01-12 04:20:00,54.5,22.0,29.12,NNW,333,5.6,8.7,28,0.00,,,0.00,WSDL version 426,2013-01-12 10:20:00,
2013-01-12 04:25:00,54.3,21.6,29.12,NNW,343,9.0,13.0,27,0.00,,,0.00,WSDL version 426,2013-01-12 10:25:00,
2013-01-12 04:30:00,54.2,21.4,29.12,North,352,6.9,13.0,27,0.00,,,0.00,WSDL version 426,2013-01-12 10:30:00,
2013-01-12 04:35:00,53.9,21.4,29.12,North,352,5.6,9.2,28,0.00,,,0.00,WSDL version 426,2013-01-12 10:35:00,
2013-01-12 04:40:00,53.7,21.4,29.12,NNW,332,6.5,10.5,28,0.00,,,0.00,WSDL version 426,2013-01-12 10:40:00,
2013-01-12 04:45:00,53.5,21.2,29.12,NNW,343,7.7,10.5,28,0.00,,,0.00,WSDL version 426,2013-01-12 10:45:00,
2013-01-12 04:50:00,53.2,21.0,29.12,NNW,332,8.7,15.2,28,0.00,,,0.00,WSDL version 426,2013-01-12 10:50:00,
2013-01-12 04:55:00,53.1,20.9,29.12,NNW,335,8.2,15.2,28,0.00,,,0.00,WSDL version 426,2013-01-12 10:55:00,
2013-01-12 05:00:00,52.9,20.7,29.12,NNW,340,7.1,10.3,28,0.00,,,0.00,WSDL version 426,2013-01-12 11:00:00,
2013-01-12 05:05:00,52.7,20.7,29.12,North,357,6.5,9.8,29,0.00,,,0.00,WSDL version 426,2013-01-12 11:05:00,
2013-01-12 05:10:00,52.5,21.0,29.12,North,357,8.4,12.1,29,0.00,,,0.00,WSDL version 426,2013-01-12 11:10:00,
2013-01-12 05:15:00,52.3,21.0,29.12,North,352,8.4,13.2,29,0.00,,,0.00,WSDL version 426,2013-01-12 11:15:00,
2013-01-12 05:20:00,52.1,20.8,29.12,North,353,8.1,13.2,29,0.00,,,0.00,WSDL version 426,2013-01-12 11:20:00,
2013-01-12 05:25:00,51.8,20.7,29.12,NNW,343,7.4,12.5,30,0.00,,,0.00,WSDL version 426,2013-01-12 11:25:00,
2013-01-12 05:30:00,51.6,21.2,29.12,NNW,348,9.3,13.4,30,0.00,,,0.00,WSDL version 426,2013-01-12 11:30:00,
2013-01-12 05:35:00,51.6,21.2,29.12,NNW,338,7.2,13.4,30,0.00,,,0.00,WSDL version 426,2013-01-12 11:35:00,
2013-01-12 05:40:00,51.4,21.7,29.12,NNW,346,8.2,11.9,31,0.00,,,0.00,WSDL version 426,2013-01-12 11:40:00,
2013-01-12 05:45:00,51.3,21.7,29.15,NNW,345,8.4,13.0,31,0.00,,,0.00,WSDL version 426,2013-01-12 11:45:00,
2013-01-12 05:50:00,51.1,22.1,29.15,North,354,6.2,13.0,32,0.00,,,0.00,WSDL version 426,2013-01-12 11:50:00,
2013-01-12 05:55:00,51.0,22.5,29.15,North,360,6.2,10.7,33,0.00,,,0.00,WSDL version 426,2013-01-12 11:55:00,
2013-01-12 06:00:00,50.9,22.8,29.18,North,360,7.5,11.9,33,0.00,,,0.00,WSDL version 426,2013-01-12 12:00:00,
2013-01-12 06:05:00,50.6,23.5,29.18,NNW,343,6.2,11.9,35,0.00,,,0.00,WSDL version 426,2013-01-12 12:05:00,
2013-01-12 06:10:00,50.4,24.1,29.18,NNW,328,7.8,9.8,36,0.00,,,0.00,WSDL version 426,2013-01-12 12:10:00,
2013-01-12 06:15:00,50.2,24.2,29.18,NNW,338,9.3,17.4,36,0.00,,,0.00,WSDL version 426,2013-01-12 12:15:00,
2013-01-12 06:20:00,49.9,24.5,29.18,NNW,348,9.3,17.4,37,0.00,,,0.00,WSDL version 426,2013-01-12 12:20:00,
2013-01-12 06:25:00,49.6,25.1,29.18,NNW,340,9.5,15.4,39,0.00,,,0.00,WSDL version 426,2013-01-12 12:25:00,
2013-01-12 06:30:00,49.1,25.6,29.18,NNW,346,10.0,16.6,40,0.00,,,0.00,WSDL version 426,2013-01-12 12:30:00,
2013-01-12 06:35:00,48.7,25.9,29.18,NNW,346,9.0,16.6,41,0.00,,,0.00,WSDL version 426,2013-01-12 12:35:00,
2013-01-12 06:40:00,48.4,26.4,29.18,NNE,15,8.1,14.5,42,0.00,,,0.00,WSDL version 426,2013-01-12 12:40:00,
2013-01-12 06:45:00,48.0,26.0,29.18,North,5,9.0,14.5,42,0.00,,,0.00,WSDL version 426,2013-01-12 12:45:00,
2013-01-12 06:50:00,47.6,26.4,29.18,North,6,7.7,14.3,44,0.00,,,0.00,WSDL version 426,2013-01-12 12:50:00,
2013-01-12 06:55:00,47.4,27.5,29.18,North,5,9.6,15.7,47,0.00,,,0.00,WSDL version 426,2013-01-12 12:55:00,
2013-01-12 07:00:00,47.0,27.8,29.18,North,6,7.3,15.7,47,0.00,,,0.00,WSDL version 426,2013-01-12 13:00:00,
2013-01-12 07:05:00,46.8,27.7,29.18,North,355,9.4,13.2,47,0.00,,,0.00,WSDL version 426,2013-01-12 13:05:00,
2013-01-12 07:10:00,46.3,27.5,29.18,North,352,8.1,13.2,48,0.00,,,0.00,WSDL version 426,2013-01-12 13:10:00,
2013-01-12 07:15:00,45.7,27.6,29.21,NNE,20,8.2,13.2,49,0.00,,,0.00,WSDL version 426,2013-01-12 13:15:00,
2013-01-12 07:20:00,45.2,27.7,29.21,North,3,8.9,13.0,50,0.00,,,0.00,WSDL version 426,2013-01-12 13:20:00,
2013-01-12 07:25:00,44.8,27.6,29.21,North,352,8.0,13.2,51,0.00,,,0.00,WSDL version 426,2013-01-12 13:25:00,
2013-01-12 07:30:00,44.4,27.4,29.21,North,10,8.4,13.2,51,0.00,,,0.00,WSDL version 426,2013-01-12 13:30:00,
2013-01-12 07:35:00,43.9,27.4,29.21,North,6,8.6,14.1,52,0.00,,,0.00,WSDL version 426,2013-01-12 13:35:00,
2013-01-12 07:40:00,43.6,27.0,29.21,North,358,9.7,15.2,52,0.00,,,0.00,WSDL version 426,2013-01-12 13:40:00,
2013-01-12 07:45:00,43.3,26.8,29.23,North,352,11.8,19.7,52,0.00,,,0.00,WSDL version 426,2013-01-12 13:45:00,
2013-01-12 07:51:00,42.8,26.7,29.23,North,355,7.2,19.7,53,0.00,,,0.00,WSDL version 426,2013-01-12 13:51:00,
2013-01-12 07:56:00,42.5,26.5,29.23,North,6,12.5,18.1,53,0.00,,,0.00,WSDL version 426,2013-01-12 13:56:00,
2013-01-12 08:01:00,42.2,26.4,29.23,NNW,346,12.2,18.1,54,0.00,,,0.00,WSDL version 426,2013-01-12 14:01:00,
2013-01-12 08:07:00,41.8,26.7,29.23,NNE,13,12.7,18.1,55,0.00,,,0.00,WSDL version 426,2013-01-12 14:07:00,
2013-01-12 08:13:00,41.5,26.6,29.21,NNE,14,11.8,19.7,55,0.00,,,0.00,WSDL version 426,2013-01-12 14:13:00,
2013-01-12 08:18:00,41.4,26.6,29.21,North,353,8.9,16.8,56,0.00,,,0.00,WSDL version 426,2013-01-12 14:18:00,
2013-01-12 08:23:00,41.3,26.7,29.21,North,355,10.8,16.6,56,0.00,,,0.00,WSDL version 426,2013-01-12 14:23:00,
2013-01-12 08:28:00,41.2,26.6,29.23,North,358,9.4,14.5,56,0.00,,,0.00,WSDL version 426,2013-01-12 14:28:00,
2013-01-12 08:33:00,41.2,26.7,29.23,North,10,10.1,13.0,56,-99.99,,,-99.99,WSDL version 426,2013-01-12 14:33:00,
2013-01-12 08:38:00,41.0,26.5,29.23,North,352,9.6,13.0,56,0.00,,,0.00,WSDL version 426,2013-01-12 14:38:00,
2013-01-12 08:44:00,41.2,26.7,29.23,North,350,11.0,19.0,56,0.00,,,0.00,WSDL version 426,2013-01-12 14:44:00,
2013-01-12 08:49:00,41.1,26.2,29.23,NNW,343,10.8,19.0,55,0.00,,,0.00,WSDL version 426,2013-01-12 14:49:00,
2013-01-12 08:54:00,41.0,26.1,29.23,North,355,10.4,15.4,55,0.00,,,0.00,WSDL version 426,2013-01-12 14:54:00,
2013-01-12 08:59:00,41.0,26.1,29.23,NNW,343,10.4,17.4,55,0.00,,,0.00,WSDL version 426,2013-01-12 14:59:00,
2013-01-12 09:04:00,41.0,25.9,29.23,North,5,7.8,17.4,55,0.00,,,0.00,WSDL version 426,2013-01-12 15:04:00,
2013-01-12 09:09:00,41.0,25.6,29.23,North,360,9.8,14.5,54,0.00,,,0.00,WSDL version 426,2013-01-12 15:09:00,
2013-01-12 09:14:00,41.0,25.6,29.23,North,358,7.1,14.5,54,0.00,,,0.00,WSDL version 426,2013-01-12 15:14:00,
2013-01-12 09:19:00,41.0,25.6,29.23,NNE,23,11.9,17.2,53,0.00,,,0.00,WSDL version 426,2013-01-12 15:19:00,
2013-01-12 09:24:00,41.0,25.2,29.23,North,360,11.2,17.2,53,0.00,,,0.00,WSDL version 426,2013-01-12 15:24:00,
2013-01-12 09:30:00,40.8,25.1,29.21,North,3,12.9,17.7,53,0.00,,,0.00,WSDL version 426,2013-01-12 15:30:00,
2013-01-12 09:35:00,40.8,25.5,29.21,North,8,11.6,17.7,54,0.00,,,0.00,WSDL version 426,2013-01-12 15:35:00,
2013-01-12 09:40:00,41.0,25.4,29.21,North,352,10.6,15.2,53,0.00,,,0.00,WSDL version 426,2013-01-12 15:40:00,
2013-01-12 09:45:00,41.0,24.7,29.21,North,3,10.5,16.8,51,0.00,,,0.00,WSDL version 426,2013-01-12 15:45:00,
2013-01-12 09:50:00,41.0,24.3,29.21,North,10,8.7,17.4,51,0.00,,,0.00,WSDL version 426,2013-01-12 15:50:00,
2013-01-12 09:55:00,41.0,24.3,29.21,North,6,8.6,17.4,51,0.00,,,0.00,WSDL version 426,2013-01-12 15:55:00,
2013-01-12 10:00:00,41.0,23.9,29.23,NNE,13,8.4,17.0,50,0.00,,,0.00,WSDL version 426,2013-01-12 16:00:00,
2013-01-12 10:05:00,41.0,24.1,29.23,North,352,10.7,17.0,50,0.00,,,0.00,WSDL version 426,2013-01-12 16:05:00,
2013-01-12 10:10:00,40.8,23.6,29.23,North,6,10.0,15.9,50,0.00,,,0.00,WSDL version 426,2013-01-12 16:10:00,
2013-01-12 10:15:00,40.6,23.5,29.23,North,355,9.5,15.2,50,0.00,,,0.00,WSDL version 426,2013-01-12 16:15:00,
2013-01-12 10:20:00,40.8,23.8,29.23,North,349,9.1,15.2,50,0.00,,,0.00,WSDL version 426,2013-01-12 16:20:00,
2013-01-12 10:25:00,40.8,24.1,29.23,North,360,9.0,14.1,51,0.00,,,0.00,WSDL version 426,2013-01-12 16:25:00,
2013-01-12 10:30:00,40.7,23.6,29.26,North,349,10.8,14.1,50,0.00,,,0.00,WSDL version 426,2013-01-12 16:30:00,
2013-01-12 10:35:00,40.6,23.4,29.26,North,5,12.3,17.0,50,0.00,,,0.00,WSDL version 426,2013-01-12 16:35:00,
2013-01-12 10:40:00,40.5,23.3,29.26,North,360,10.1,17.0,50,0.00,,,0.00,WSDL version 426,2013-01-12 16:40:00,
2013-01-12 10:45:00,40.4,23.5,29.23,NNW,338,12.1,17.0,50,0.00,,,0.00,WSDL version 426,2013-01-12 16:45:00,
2013-01-12 10:50:00,40.4,23.1,29.23,North,8,9.7,17.4,49,0.00,,,0.00,WSDL version 426,2013-01-12 16:50:00,
2013-01-12 10:55:00,40.3,22.2,29.23,NNE,17,9.2,17.7,48,0.00,,,0.00,WSDL version 426,2013-01-12 16:55:00,
2013-01-12 11:00:00,40.1,21.8,29.23,NNE,13,9.2,17.7,48,0.00,,,0.00,WSDL version 426,2013-01-12 17:00:00,
2013-01-12 11:05:00,40.0,21.4,29.23,NNE,19,11.4,19.5,46,0.00,,,0.00,WSDL version 426,2013-01-12 17:05:00,
2013-01-12 11:10:00,39.9,20.6,29.23,North,355,11.4,19.5,45,0.00,,,0.00,WSDL version 426,2013-01-12 17:10:00,
2013-01-12 11:15:00,39.9,20.6,29.21,North,8,10.0,17.0,45,0.00,,,0.00,WSDL version 426,2013-01-12 17:15:00,
2013-01-12 11:20:00,40.1,20.6,29.21,NNE,13,8.2,15.2,45,0.00,,,0.00,WSDL version 426,2013-01-12 17:20:00,
2013-01-12 11:25:00,40.1,20.3,29.21,NNE,28,8.8,15.2,45,0.00,,,0.00,WSDL version 426,2013-01-12 17:25:00,
2013-01-12 11:30:00,40.2,20.5,29.21,North,357,10.1,14.3,44,0.00,,,0.00,WSDL version 426,2013-01-12 17:30:00,
2013-01-12 11:35:00,39.9,19.8,29.21,North,355,10.9,14.5,44,0.00,,,0.00,WSDL version 426,2013-01-12 17:35:00,
2013-01-12 11:40:00,39.6,19.5,29.21,North,354,10.3,14.5,44,0.00,,,0.00,WSDL version 426,2013-01-12 17:40:00,
2013-01-12 11:45:00,39.4,19.5,29.21,NNE,17,10.0,15.7,45,0.00,,,0.00,WSDL version 426,2013-01-12 17:45:00,
2013-01-12 11:50:00,39.1,19.4,29.21,North,11,11.0,15.9,45,0.00,,,0.00,WSDL version 426,2013-01-12 17:50:00,
2013-01-12 11:55:00,38.8,19.7,29.21,North,358,11.3,15.9,46,0.00,,,0.00,WSDL version 426,2013-01-12 17:55:00,
2013-01-12 12:00:00,38.7,19.9,29.21,North,5,10.0,14.3,47,0.00,,,0.00,WSDL version 426,2013-01-12 18:00:00,
2013-01-12 12:05:00,38.8,20.1,29.21,NNE,14,10.8,14.3,46,0.00,,,0.00,WSDL version 426,2013-01-12 18:05:00,
2013-01-12 12:10:00,38.7,19.9,29.21,North,353,8.3,15.2,47,0.00,,,0.00,WSDL version 426,2013-01-12 18:10:00,
2013-01-12 12:15:00,38.7,20.1,29.18,North,360,10.3,15.4,46,0.00,,,0.00,WSDL version 426,2013-01-12 18:15:00,
2013-01-12 12:20:00,38.7,20.2,29.18,North,5,10.3,15.4,47,0.00,,,0.00,WSDL version 426,2013-01-12 18:20:00,
2013-01-12 12:25:00,38.7,20.3,29.18,NNE,17,9.2,16.6,47,0.00,,,0.00,WSDL version 426,2013-01-12 18:25:00,
2013-01-12 12:30:00,38.7,20.4,29.15,NNE,30,10.3,24.4,48,0.00,,,0.00,WSDL version 426,2013-01-12 18:30:00,
2013-01-12 12:35:00,38.6,20.4,29.15,North,354,11.2,24.4,48,0.00,,,0.00,WSDL version 426,2013-01-12 18:35:00,
2013-01-12 12:40:00,38.5,20.6,29.15,NNE,19,7.3,15.2,49,0.00,,,0.00,WSDL version 426,2013-01-12 18:40:00,
2013-01-12 12:45:00,38.6,21.1,29.15,North,8,7.3,10.7,49,0.00,,,0.00,WSDL version 426,2013-01-12 18:45:00,
2013-01-12 12:50:00,38.5,21.0,29.15,NNW,335,9.2,12.5,49,0.00,,,0.00,WSDL version 426,2013-01-12 18:50:00,
2013-01-12 12:55:00,38.2,20.6,29.15,NNW,340,9.6,14.5,49,0.00,,,0.00,WSDL version 426,2013-01-12 18:55:00,
2013-01-12 13:00:00,37.9,20.2,29.18,NW,318,13.6,17.7,48,0.00,,,0.00,WSDL version 426,2013-01-12 19:00:00,
2013-01-12 13:05:00,37.5,20.1,29.18,NNW,348,10.8,17.7,49,0.00,,,0.00,WSDL version 426,2013-01-12 19:05:00,
2013-01-12 13:10:00,37.4,20.0,29.18,North,10,9.4,15.4,49,0.00,,,0.00,WSDL version 426,2013-01-12 19:10:00,
2013-01-12 13:15:00,37.4,20.2,29.18,North,352,8.1,14.5,49,0.00,,,0.00,WSDL version 426,2013-01-12 19:15:00,
2013-01-12 13:20:00,37.2,21.0,29.18,North,6,7.7,12.5,53,0.00,,,0.00,WSDL version 426,2013-01-12 19:20:00,
2013-01-12 13:25:00,36.8,21.9,29.18,NNE,14,9.7,13.6,55,0.00,,,0.00,WSDL version 426,2013-01-12 19:25:00,
2013-01-12 13:30:00,36.5,22.1,29.15,North,357,10.2,14.5,56,0.00,,,0.00,WSDL version 426,2013-01-12 19:30:00,
2013-01-12 13:35:00,36.3,22.6,29.15,NNE,14,8.6,14.5,58,0.00,,,0.00,WSDL version 426,2013-01-12 19:35:00,
2013-01-12 13:40:00,36.0,23.6,29.15,North,353,8.7,15.2,61,0.00,,,0.00,WSDL version 426,2013-01-12 19:40:00,
2013-01-12 13:45:00,35.7,23.9,29.18,North,5,9.2,17.7,63,0.04,,,0.04,WSDL version 426,2013-01-12 19:45:00,
2013-01-12 13:50:00,35.2,25.6,29.18,North,357,9.6,17.7,70,0.08,,,0.08,WSDL version 426,2013-01-12 19:50:00,
2013-01-12 13:55:00,34.7,25.8,29.18,NNE,33,5.9,17.2,70,0.08,,,0.08,WSDL version 426,2013-01-12 19:55:00,
2013-01-12 14:00:00,34.6,26.6,29.12,North,3,10.0,17.2,73,0.12,,,0.12,WSDL version 426,2013-01-12 20:00:00,
2013-01-12 14:05:00,34.5,27.2,29.12,North,352,8.1,15.2,75,0.12,,,0.12,WSDL version 426,2013-01-12 20:05:00,
2013-01-12 14:10:00,34.5,27.4,29.12,NE,37,6.9,12.8,75,0.12,,,0.12,WSDL version 426,2013-01-12 20:10:00,
2013-01-12 14:15:00,34.5,27.5,29.18,North,5,7.2,12.8,76,0.12,,,0.12,WSDL version 426,2013-01-12 20:15:00,
2013-01-12 14:20:00,34.6,27.8,29.18,NNW,333,6.9,10.7,76,0.12,,,0.12,WSDL version 426,2013-01-12 20:20:00,
2013-01-12 14:25:00,34.7,28.0,29.18,North,349,8.2,12.3,77,0.17,,,0.17,WSDL version 426,2013-01-12 20:25:00,
2013-01-12 14:30:00,34.5,28.1,29.15,NNW,338,9.8,13.9,77,0.17,,,0.17,WSDL version 426,2013-01-12 20:30:00,
2013-01-12 14:35:00,34.3,27.8,29.15,NNW,335,9.2,13.9,77,0.17,,,0.17,WSDL version 426,2013-01-12 20:35:00,
2013-01-12 14:40:00,34.0,27.4,29.15,NNW,333,12.5,17.2,76,0.17,,,0.17,WSDL version 426,2013-01-12 20:40:00,
2013-01-12 14:45:00,33.9,27.4,29.21,NNW,340,9.3,17.2,77,0.13,,,0.17,WSDL version 426,2013-01-12 20:45:00,
2013-01-12 14:50:00,33.7,27.5,29.21,North,357,7.9,15.7,78,0.09,,,0.17,WSDL version 426,2013-01-12 20:50:00,
2013-01-12 14:55:00,33.6,27.5,29.21,NNE,15,7.4,15.7,78,0.13,,,0.21,WSDL version 426,2013-01-12 20:55:00,
2013-01-12 15:00:00,33.6,27.8,29.18,NNW,346,7.1,12.1,79,0.09,,,0.21,WSDL version 426,2013-01-12 21:00:00,
2013-01-12 15:05:00,33.7,27.9,29.18,NNW,348,7.6,14.8,79,0.09,,,0.21,WSDL version 426,2013-01-12 21:05:00,
2013-01-12 15:10:00,34.0,28.2,29.18,NNW,343,12.2,17.7,79,0.13,,,0.25,WSDL version 426,2013-01-12 21:10:00,
2013-01-12 15:15:00,34.3,28.0,29.12,North,355,8.5,17.7,76,0.13,,,0.25,WSDL version 426,2013-01-12 21:15:00,
2013-01-12 15:20:00,34.5,27.3,29.12,NNW,343,10.4,16.3,74,0.13,,,0.25,WSDL version 426,2013-01-12 21:20:00,
2013-01-12 15:25:00,35.0,27.2,29.12,NNW,345,11.1,16.3,73,0.08,,,0.25,WSDL version 426,2013-01-12 21:25:00,
2013-01-12 15:30:00,35.8,26.8,29.15,NNW,333,12.8,16.8,67,0.08,,,0.25,WSDL version 426,2013-01-12 21:30:00,
2013-01-12 15:35:00,34.9,25.6,29.15,North,360,8.7,16.8,70,0.08,,,0.25,WSDL version 426,2013-01-12 21:35:00,
2013-01-12 15:40:00,34.4,25.6,29.15,North,360,11.3,17.9,69,0.08,,,0.25,WSDL version 426,2013-01-12 21:40:00,
2013-01-12 15:45:00,34.0,26.1,29.15,North,360,9.3,17.9,73,0.08,,,0.25,WSDL version 426,2013-01-12 21:45:00,
2013-01-12 15:50:00,33.7,26.2,29.15,North,360,10.0,15.2,74,0.08,,,0.25,WSDL version 426,2013-01-12 21:50:00,
2013-01-12 15:55:00,33.4,26.2,29.15,North,360,13.8,17.4,74,0.04,,,0.25,WSDL version 426,2013-01-12 21:55:00,
2013-01-12 16:00:00,33.1,25.4,29.18,North,360,12.1,17.4,73,0.04,,,0.25,WSDL version 426,2013-01-12 22:00:00,
2013-01-12 16:05:00,33.0,25.6,29.18,North,360,10.7,15.7,75,0.04,,,0.25,WSDL version 426,2013-01-12 22:05:00,
2013-01-12 16:10:00,32.9,25.9,29.18,North,360,10.5,17.7,75,0.00,,,0.25,WSDL version 426,2013-01-12 22:10:00,
2013-01-12 16:15:00,32.7,25.6,29.18,North,360,9.4,23.7,74,0.00,,,0.25,WSDL version 426,2013-01-12 22:15:00,
2013-01-12 16:20:00,32.7,25.1,29.18,North,360,10.2,23.7,74,0.00,,,0.25,WSDL version 426,2013-01-12 22:20:00,
2013-01-12 16:25:00,32.6,25.5,29.18,North,360,8.4,16.1,75,0.00,,,0.25,WSDL version 426,2013-01-12 22:25:00,
2013-01-12 16:30:00,32.5,25.7,29.18,North,360,12.2,15.9,75,0.00,,,0.25,WSDL version 426,2013-01-12 22:30:00,
2013-01-12 16:36:00,32.4,25.5,29.18,North,360,11.2,17.4,76,0.00,,,0.25,WSDL version 426,2013-01-12 22:36:00,
2013-01-12 16:41:00,32.1,26.2,29.18,North,360,8.8,17.4,79,0.04,,,0.29,WSDL version 426,2013-01-12 22:41:00,
2013-01-12 16:46:00,32.0,27.1,29.18,North,360,7.5,16.8,80,0.04,,,0.29,WSDL version 426,2013-01-12 22:46:00,
2013-01-12 16:51:00,31.9,27.3,29.18,North,360,8.3,16.8,82,0.08,,,0.33,WSDL version 426,2013-01-12 22:51:00,
2013-01-12 16:56:00,31.8,27.8,29.18,North,360,8.6,12.3,83,0.08,,,0.33,WSDL version 426,2013-01-12 22:56:00,
2013-01-12 17:01:00,32.0,27.6,29.23,North,360,0.0,11.0,80,0.08,,,0.33,WSDL version 426,2013-01-12 23:01:00,
2013-01-12 17:06:00,31.9,27.1,29.23,North,360,0.0,0.0,80,0.08,,,0.33,WSDL version 426,2013-01-12 23:06:00,
2013-01-12 17:11:00,32.0,27.2,29.23,North,360,0.0,0.0,80,0.08,,,0.33,WSDL version 426,2013-01-12 23:11:00,
2013-01-12 17:16:00,32.0,27.2,29.21,North,360,0.0,0.0,80,0.08,,,0.33,WSDL version 426,2013-01-12 23:16:00,
2013-01-12 17:22:00,31.9,26.8,29.21,North,360,0.0,0.0,79,0.08,,,0.33,WSDL version 426,2013-01-12 23:22:00,
2013-01-12 17:27:00,31.8,26.7,29.21,North,360,0.0,0.0,79,0.08,,,0.33,WSDL version 426,2013-01-12 23:27:00,
2013-01-12 17:32:00,31.9,26.8,29.21,North,360,0.0,0.0,79,0.08,,,0.33,WSDL version 426,2013-01-12 23:32:00,
2013-01-12 17:37:00,32.0,27.1,29.21,North,360,0.0,0.0,80,0.08,,,0.33,WSDL version 426,2013-01-12 23:37:00,
2013-01-12 17:42:00,31.9,27.1,29.21,North,360,0.0,0.0,80,0.04,,,0.33,WSDL version 426,2013-01-12 23:42:00,
2013-01-12 17:47:00,31.8,27.0,29.21,North,360,0.0,0.0,80,0.08,,,0.37,WSDL version 426,2013-01-12 23:47:00,
2013-01-12 17:52:00,31.8,27.3,29.21,North,360,0.0,0.0,82,0.04,,,0.37,WSDL version 426,2013-01-12 23:52:00,
2013-01-12 17:57:00,31.8,27.6,29.21,North,360,0.0,0.0,82,0.04,,,0.37,WSDL version 426,2013-01-12 23:57:00,
2013-01-12 18:02:00,31.8,27.7,29.21,North,360,0.0,0.0,82,0.04,,,0.37,WSDL version 426,2013-01-13 00:02:00,
2013-01-12 18:07:00,31.7,27.5,29.21,North,360,0.0,0.0,82,0.04,,,0.37,WSDL version 426,2013-01-13 00:07:00,
2013-01-12 18:12:00,31.5,26.9,29.23,North,360,0.0,0.0,81,0.04,,,0.37,WSDL version 426,2013-01-13 00:12:00,
2013-01-12 18:17:00,31.3,26.6,29.23,North,360,0.0,0.0,80,0.04,,,0.37,WSDL version 426,2013-01-13 00:17:00,
2013-01-12 18:22:00,31.1,26.2,29.23,North,360,0.0,0.0,79,0.04,,,0.37,WSDL version 426,2013-01-13 00:22:00,
2013-01-12 18:27:00,31.1,26.2,29.23,North,360,0.0,0.0,80,0.04,,,0.37,WSDL version 426,2013-01-13 00:27:00,
2013-01-12 18:32:00,31.0,26.5,29.23,North,360,0.0,0.0,81,0.04,,,0.37,WSDL version 426,2013-01-13 00:32:00,
2013-01-12 18:37:00,30.9,26.1,29.23,North,360,0.0,0.0,81,0.04,,,0.37,WSDL version 426,2013-01-13 00:37:00,
2013-01-12 18:42:00,30.9,26.4,29.23,North,360,0.0,0.0,81,0.04,,,0.37,WSDL version 426,2013-01-13 00:42:00,
2013-01-12 18:47:00,30.8,26.5,29.23,North,360,0.0,0.0,82,0.00,,,0.37,WSDL version 426,2013-01-13 00:47:00,
2013-01-12 18:52:00,30.7,26.6,29.23,North,360,0.0,0.0,83,0.00,,,0.37,WSDL version 426,2013-01-13 00:52:00,
2013-01-12 18:57:00,30.7,26.8,29.23,North,360,0.0,0.0,83,0.00,,,0.37,WSDL version 426,2013-01-13 00:57:00,
2013-01-12 19:02:00,30.6,26.4,29.23,North,360,0.0,0.0,82,0.00,,,0.37,WSDL version 426,2013-01-13 01:02:00,
2013-01-12 19:07:00,30.6,26.6,29.23,North,360,0.0,0.0,83,0.00,,,0.37,WSDL version 426,2013-01-13 01:07:00,
2013-01-12 19:12:00,30.5,26.5,29.26,North,360,0.0,0.0,82,0.00,,,0.37,WSDL version 426,2013-01-13 01:12:00,
2013-01-12 19:17:00,30.4,26.2,29.26,North,360,0.0,0.0,82,0.00,,,0.37,WSDL version 426,2013-01-13 01:17:00,
2013-01-12 19:22:00,30.3,26.3,29.26,North,360,0.0,0.0,83,-99.99,,,-99.99,WSDL version 426,2013-01-13 01:22:00,
2013-01-12 19:27:00,30.2,26.3,29.23,North,360,0.0,0.0,83,0.00,,,0.37,WSDL version 426,2013-01-13 01:27:00,
2013-01-12 19:32:00,30.1,26.2,29.23,North,360,0.0,0.0,82,0.00,,,0.37,WSDL version 426,2013-01-13 01:32:00,
2013-01-12 19:37:00,29.9,25.4,29.23,North,360,0.0,0.0,80,-99.99,,,-99.99,WSDL version 426,2013-01-13 01:37:00,
2013-01-12 19:42:00,29.7,24.6,29.26,North,360,0.0,0.0,79,0.00,,,0.37,WSDL version 426,2013-01-13 01:42:00,
2013-01-12 19:47:00,29.7,24.4,29.26,North,360,0.0,0.0,78,0.00,,,0.37,WSDL version 426,2013-01-13 01:47:00,
2013-01-12 19:52:00,29.5,24.2,29.26,North,360,0.0,0.0,78,0.00,,,0.37,WSDL version 426,2013-01-13 01:52:00,
2013-01-12 19:57:00,29.5,24.2,29.23,North,360,0.0,0.0,78,0.00,,,0.37,WSDL version 426,2013-01-13 01:57:00,
2013-01-12 20:02:00,29.5,24.1,29.23,North,360,0.0,0.0,78,0.00,,,0.37,WSDL version 426,2013-01-13 02:02:00,
2013-01-12 20:07:00,29.5,24.4,29.23,North,360,0.0,0.0,79,0.00,,,0.37,WSDL version 426,2013-01-13 02:07:00,
2013-01-12 20:12:00,29.5,24.5,29.23,North,360,0.0,0.0,80,0.00,,,0.37,WSDL version 426,2013-01-13 02:12:00,
2013-01-12 20:17:00,29.5,24.5,29.23,North,360,0.0,0.0,79,0.00,,,0.37,WSDL version 426,2013-01-13 02:17:00,
2013-01-12 20:22:00,29.5,24.5,29.23,North,360,0.0,0.0,80,0.00,,,0.37,WSDL version 426,2013-01-13 02:22:00,
2013-01-12 20:27:00,29.5,24.6,29.23,North,360,0.0,0.0,79,0.00,,,0.37,WSDL version 426,2013-01-13 02:27:00,
2013-01-12 20:32:00,29.5,24.7,29.23,North,360,0.0,0.0,80,0.00,,,0.37,WSDL version 426,2013-01-13 02:32:00,
2013-01-12 20:37:00,29.5,24.2,29.23,North,360,0.0,0.0,77,0.00,,,0.37,WSDL version 426,2013-01-13 02:37:00,
2013-01-12 20:42:00,29.5,23.3,29.26,North,360,0.0,0.0,74,0.00,,,0.37,WSDL version 426,2013-01-13 02:42:00,
2013-01-12 20:47:00,29.5,23.2,29.26,North,360,0.0,0.0,75,0.00,,,0.37,WSDL version 426,2013-01-13 02:47:00,
2013-01-12 20:52:00,29.5,23.3,29.26,North,360,0.0,0.0,74,0.00,,,0.37,WSDL version 426,2013-01-13 02:52:00,
2013-01-12 20:57:00,29.5,22.8,29.26,North,360,0.0,0.0,73,0.00,,,0.37,WSDL version 426,2013-01-13 02:57:00,
2013-01-12 21:02:00,29.5,22.8,29.26,North,360,0.0,0.0,73,0.00,,,0.37,WSDL version 426,2013-01-13 03:02:00,
2013-01-12 21:07:00,29.5,22.8,29.26,North,360,0.0,0.0,73,0.00,,,0.37,WSDL version 426,2013-01-13 03:07:00,
2013-01-12 21:12:00,29.5,23.0,29.26,North,360,0.0,0.0,73,0.00,,,0.37,WSDL version 426,2013-01-13 03:12:00,
2013-01-12 21:17:00,29.5,22.3,29.26,North,360,0.0,0.0,70,0.00,,,0.37,WSDL version 426,2013-01-13 03:17:00,
2013-01-12 21:22:00,29.5,21.5,29.26,North,360,0.0,0.0,69,0.00,,,0.37,WSDL version 426,2013-01-13 03:22:00,
2013-01-12 21:27:00,29.3,21.4,29.29,North,360,0.0,0.0,69,0.00,,,0.37,WSDL version 426,2013-01-13 03:27:00,
2013-01-12 21:32:00,29.3,21.3,29.29,North,360,0.0,0.0,69,0.00,,,0.37,WSDL version 426,2013-01-13 03:32:00,
2013-01-12 21:37:00,29.3,21.6,29.29,North,360,0.0,0.0,70,0.00,,,0.37,WSDL version 426,2013-01-13 03:37:00,
2013-01-12 21:42:00,29.3,21.8,29.26,North,360,0.0,0.0,71,0.00,,,0.37,WSDL version 426,2013-01-13 03:42:00,
2013-01-12 21:47:00,29.2,21.7,29.26,North,360,0.0,0.0,70,0.00,,,0.37,WSDL version 426,2013-01-13 03:47:00,
2013-01-12 21:52:00,29.2,21.5,29.26,North,360,0.0,0.0,69,0.00,,,0.37,WSDL version 426,2013-01-13 03:52:00,
2013-01-12 21:57:00,29.1,20.6,29.26,North,360,0.0,0.0,66,0.00,,,0.37,WSDL version 426,2013-01-13 03:57:00,
2013-01-12 22:02:00,29.1,20.0,29.26,North,360,0.0,0.0,64,0.00,,,0.37,WSDL version 426,2013-01-13 04:02:00,
2013-01-12 22:07:00,29.0,19.3,29.26,North,360,0.0,0.0,63,0.00,,,0.37,WSDL version 426,2013-01-13 04:07:00,
2013-01-12 22:12:00,28.9,19.3,29.26,North,360,0.0,0.0,64,0.00,,,0.37,WSDL version 426,2013-01-13 04:12:00,
2013-01-12 22:17:00,28.8,19.2,29.26,North,360,0.0,0.0,63,0.00,,,0.37,WSDL version 426,2013-01-13 04:17:00,
2013-01-12 22:22:00,28.7,19.3,29.26,North,360,0.0,0.0,65,0.00,,,0.37,WSDL version 426,2013-01-13 04:22:00,
2013-01-12 22:27:00,28.7,19.4,29.29,North,360,0.0,0.0,65,0.00,,,0.37,WSDL version 426,2013-01-13 04:27:00,
2013-01-12 22:32:00,28.7,19.3,29.29,North,360,0.0,0.0,65,0.00,,,0.37,WSDL version 426,2013-01-13 04:32:00,
2013-01-12 22:37:00,28.7,19.3,29.29,North,360,0.0,0.0,65,0.00,,,0.37,WSDL version 426,2013-01-13 04:37:00,
2013-01-12 22:42:00,28.6,19.4,29.26,North,360,0.0,0.0,65,0.00,,,0.37,WSDL version 426,2013-01-13 04:42:00,
2013-01-12 22:47:00,28.6,19.8,29.26,North,360,0.0,0.0,67,0.00,,,0.37,WSDL version 426,2013-01-13 04:47:00,
2013-01-12 22:52:00,28.6,20.3,29.26,North,360,0.0,0.0,68,0.00,,,0.37,WSDL version 426,2013-01-13 04:52:00,
2013-01-12 22:57:00,28.6,20.4,29.29,North,360,0.0,0.0,68,0.00,,,0.37,WSDL version 426,2013-01-13 04:57:00,
2013-01-12 23:00:00,28.6,20.4,29.29,North,360,0.0,0.0,68,0.00,,,0.37,WSDL version 426,2013-01-13 05:00:00,
2013-01-12 23:03:00,28.6,20.4,29.29,North,360,0.0,0.0,68,0.00,,,0.37,WSDL version 426,2013-01-13 05:03:00,
2013-01-12 23:05:00,28.6,20.4,29.29,North,360,0.0,0.0,68,0.00,,,0.37,WSDL version 426,2013-01-13 05:05:00,
2013-01-12 23:10:00,28.5,20.1,29.29,North,360,0.0,0.0,66,0.00,,,0.37,WSDL version 426,2013-01-13 05:10:00,
2013-01-12 23:14:00,28.4,19.8,29.29,North,360,0.0,0.0,67,0.00,,,0.37,WSDL version 426,2013-01-13 05:14:00,
2013-01-12 23:19:00,28.2,19.8,29.29,North,360,0.0,0.0,67,0.00,,,0.37,WSDL version 426,2013-01-13 05:19:00,
2013-01-12 23:24:00,28.0,19.9,29.29,North,360,0.0,0.0,68,0.00,,,0.37,WSDL version 426,2013-01-13 05:24:00,
2013-01-12 23:29:00,27.9,20.2,29.29,North,360,0.0,0.0,69,0.00,,,0.37,WSDL version 426,2013-01-13 05:29:00,
2013-01-12 23:34:00,27.7,19.3,29.29,North,360,0.0,0.0,67,0.00,,,0.37,WSDL version 426,2013-01-13 05:34:00,
2013-01-12 23:39:00,27.5,19.0,29.29,North,360,0.0,0.0,67,0.00,,,0.37,WSDL version 426,2013-01-13 05:39:00,
2013-01-12 23:44:00,27.2,18.6,29.32,North,360,0.0,0.0,67,0.00,,,0.37,WSDL version 426,2013-01-13 05:44:00,
2013-01-12 23:49:00,27.1,18.4,29.32,North,360,0.0,0.0,65,0.00,,,0.37,WSDL version 426,2013-01-13 05:49:00,
2013-01-12 23:54:00,27.0,18.3,29.32,North,360,0.0,0.0,67,0.00,,,0.37,WSDL version 426,2013-01-13 05:54:00,
2013-01-12 23:59:00,27.0,18.8,29.32,North,360,0.0,0.0,69,0.00,,,0.37,WSDL version 426,2013-01-13 05:59:00,